Sunday, February 14, 2016, 7:34 AM EST

KGED, Georgetown Sussex Co Airport

Location: Georgetown, DE, United States Lat: 38.683
Local Time: 7:34 AM EST (12:34 GMT) Lon: -75.367
Time Zone: US/Eastern Elev: 52 ft

Show me the last for .
Show Decoded

2016-02-14 06:54 METAR KGED 141154Z AUTO 32006KT 10SM CLR M11/M21 A3053 RMK AO2 SLP339 T11111211
                 11100 21111 53031 =
2016-02-14 05:54 METAR KGED 141054Z AUTO 32005KT 10SM CLR M11/M21 A3050 RMK AO2 SLP328 T11111206
                 =
2016-02-14 04:54 METAR KGED 140954Z AUTO 31005KT 10SM CLR M11/M21 A3047 RMK AO2 SLP318 T11061211
                 =
2016-02-14 03:54 METAR KGED 140854Z AUTO 31004KT 10SM CLR M11/M21 A3044 RMK AO2 SLP308 T11061211
                 53007 =
2016-02-14 02:54 METAR KGED 140754Z AUTO 32005KT 10SM CLR M11/M21 A3042 RMK AO2 SLP303 T11061211
                 =
2016-02-14 01:54 METAR KGED 140654Z AUTO VRB06KT 10SM CLR M10/M21 A3042 RMK AO2 SLP302 T11001211
                 =
2016-02-14 00:54 METAR KGED 140554Z AUTO VRB05KT 10SM CLR M10/M21 A3042 RMK AO2 SLP301 60000
                 T11001211 11078 21100 53007 =
2016-02-13 23:54 METAR KGED 140454Z AUTO VRB06G18KT 10SM CLR M09/M21 A3041 RMK AO2 SNB15E25
                 SLP297 P0000 T10941211 410391094 =
2016-02-13 22:54 METAR KGED 140354Z AUTO 31009G17KT 290V360 10SM CLR M09/M22 A3039 RMK AO2 SLP293
                 T10891217 =
2016-02-13 21:54 METAR KGED 140254Z AUTO 31009G20KT 270V340 10SM CLR M09/M21 A3040 RMK AO2 SLP294
                 T10891206 51016 =
2016-02-13 20:54 METAR KGED 140154Z AUTO 31010G20KT 280V350 10SM CLR M08/M19 A3039 RMK AO2 SLP289
                 T10831194 =
2016-02-13 19:54 METAR KGED 140054Z AUTO 33012G21KT 10SM FEW050 M08/M18 A3037 RMK AO2 SLP283
                 T10831178 =
2016-02-13 18:54 METAR KGED 132354Z AUTO 31009G21KT 290V350 10SM CLR M08/M19 A3035 RMK AO2 SLP278
                 60000 T10781189 11039 21078 53038 =
2016-02-13 17:54 METAR KGED 132254Z AUTO 30011G20KT 9SM CLR M07/M19 A3031 RMK AO2 PK WND
                 30027/2215 SNE51 SLP263 P0000 T10721194 =
2016-02-13 16:54 METAR KGED 132154Z AUTO 31009G24KT 9SM -SN BKN060 M06/M20 A3027 RMK AO2 PK WND
                 30029/2102 SLP251 P0000 T10611200 =
2016-02-13 15:54 METAR KGED 132054Z AUTO 30014G27KT 270V330 9SM -SN BKN060 M06/M19 A3024 RMK AO2
                 PK WND 30033/2041 SLP240 P0000 60000 T10561189 53022 =
2016-02-13 14:54 METAR KGED 131954Z AUTO 28015G24KT 9SM -SN BKN055 M06/M19 A3021 RMK AO2 PK WND
                 31028/1901 SLP231 P0000 T10561189 =
2016-02-13 13:54 METAR KGED 131854Z AUTO 30014G28KT 9SM -SN BKN065 M05/M19 A3019 RMK AO2 PK WND
                 29030/1758 SLP224 P0000 T10501194 =
2016-02-13 12:54 METAR KGED 131754Z AUTO 29012G27KT 9SM -SN FEW060 M05/M20 A3017 RMK AO2 PK WND
                 30031/1739 SLP218 P0000 60000 T10501200 11039 21056 50004 =
2016-02-13 11:54 METAR KGED 131654Z AUTO 30021G31KT 9SM -SN FEW060 M04/M19 A3018 RMK AO2 PK WND
                 26031/1623 SLP219 P0000 T10441189 =
2016-02-13 10:54 METAR KGED 131554Z AUTO 30017G27KT 9SM -SN OVC060 M04/M17 A3017 RMK AO2 PK WND
                 28030/1532 SNB1456 SLP218 P0000 T10441167 =
2016-02-13 09:54 METAR KGED 131454Z AUTO 31009G21KT 270V350 10SM FEW060 M04/M18 A3016 RMK AO2 PK
                 WND 32026/1408 SNB1357E40 SLP214 P0000 60000 T10441178 51029 =
2016-02-13 08:54 METAR KGED 131354Z AUTO 31014G23KT 9SM CLR M04/M16 A3014 RMK AO2 SNB38E50 SLP208
                 P0000 T10441161 =
2016-02-13 07:54 METAR KGED 131254Z AUTO 31007G17KT 10SM CLR M05/M14 A3012 RMK AO2 SLP200
                 T10501144 =

Support USWX by starting your Amazon purchase here.